Flight Track Log - Related Links

Times and Time Zones

All times are in EDT time to prevent confusion due to time zone crossing. See the SWA1496 flight status page for this flight to view local times or setup timezone preferences in your user account.

Time Position Orientation Groundspeed Altitude Reporting Facility
EDT Latitude Longitude Course Direction KTS MPH feet Rate Location/Type
Sat 03:44:56 PM 37.7167 -122.2500 309° West 149 171 1,100  Level Northern Cal TRACON
Sat 03:46:03 PM 37.7556 -122.3100 309° West 210 242 3,000 1,969 Climbing Oakland Center
Sat 03:47:04 PM 37.7389 -122.3819 254° West 229 264 5,300 3,049 Climbing Oakland Center
Sat 03:48:05 PM 37.6939 -122.4592 234° Southwest 263 303 9,200 3,220 Climbing Oakland Center
Sat 03:49:07 PM 37.6150 -122.5053 205° Southwest 315 362 11,900 3,122 Climbing Oakland Center
Sat 03:50:08 PM 37.5244 -122.5550 204° Southwest 350 403 15,600 3,492 Climbing Oakland Center
Sat 03:51:09 PM 37.4189 -122.5603 182° South 379 436 19,000 3,024 Climbing Oakland Center
Sat 03:52:11 PM 37.3094 -122.5633 181° South 392 451 21,800 2,732 Climbing Oakland Center
Sat 03:53:12 PM 37.1917 -122.5656 181° South 416 479 24,600 2,754 Climbing Oakland Center
Sat 03:54:13 PM 37.0806 -122.5253 164° South 433 498 27,400 2,508 Climbing Oakland Center
Sat 03:55:14 PM 36.9839 -122.4367 144° Southeast 434 499 29,700 2,311 Climbing Oakland Center
Sat 03:56:15 PM 36.8625 -122.3267 144° Southeast 450 518 32,100 2,293 Climbing Oakland Center
Sat 03:57:17 PM 36.7631 -122.2331 143° Southeast 448 516 34,400 2,000 Climbing Oakland Center
Sat 03:58:18 PM 36.6625 -122.1419 144° Southeast 450 518 36,200 1,574 Climbing Oakland Center
Sat 04:00:20 PM 36.4603 -121.9617 144° Southeast 449 517 39,200 1,402 Climbing Oakland Center
Sat 04:01:22 PM 36.3606 -121.8717 144° Southeast 445 512 40,500 878 Climbing Oakland Center
Sat 04:02:23 PM 36.2556 -121.7778 144° Southeast 443 510 41,000 246 Climbing Oakland Center
Sat 04:03:24 PM 36.1547 -121.6861 144° Southeast 449 517 41,000  Level Oakland Center
Sat 04:04:25 PM 36.0517 -121.5961 145° Southeast 453 521 41,000  Level Oakland Center
Sat 04:05:26 PM 35.9572 -121.4956 139° Southeast 450 518 41,000  Level Oakland Center
Sat 04:06:28 PM 35.8789 -121.3692 127° Southeast 460 529 41,000  Level Oakland Center
Sat 04:07:29 PM 35.8003 -121.2464 128° Southeast 459 528 41,000  Level Oakland Center
Sat 04:08:30 PM 35.7061 -121.0950 127° Southeast 464 534 41,000  Level Oakland Center
Sat 04:09:31 PM 35.6261 -120.9725 129° Southeast 460 529 41,000  Level Oakland Center
Sat 04:10:33 PM 35.5472 -120.8483 128° Southeast 463 533 41,000  Level Oakland Center
Sat 04:11:34 PM 35.4678 -120.7258 129° Southeast 462 532 41,000  Level Oakland Center
Sat 04:12:35 PM 35.3883 -120.6042 129° Southeast 462 532 41,000  Level Oakland Center
Sat 04:12:53 PM 35.3633 -120.5667 129° Southeast 460 529 41,000  Level Los Angeles Center
Sat 04:13:55 PM 35.2831 -120.4431 128° Southeast 462 532 41,000  Level Los Angeles Center
Sat 04:14:57 PM 35.2053 -120.3192 128° Southeast 458 527 41,000  Level Los Angeles Center
Sat 04:15:59 PM 35.1250 -120.2000 129° Southeast 453 521 41,000  Level Los Angeles Center
Sat 04:17:01 PM 35.0300 -120.0542 128° Southeast 455 524 41,000  Level Los Angeles Center
Sat 04:18:03 PM 34.9503 -119.9336 129° Southeast 457 526 41,000  Level Los Angeles Center
Sat 04:19:05 PM 34.8706 -119.8103 128° Southeast 462 532 41,000  Level Los Angeles Center
Sat 04:20:07 PM 34.7881 -119.6892 130° Southeast 465 535 41,000  Level Los Angeles Center
Sat 04:21:09 PM 34.7069 -119.5661 129° Southeast 468 539 41,000  Level Los Angeles Center
Sat 04:22:11 PM 34.6236 -119.4450 130° Southeast 468 539 41,000  Level Los Angeles Center
Sat 04:23:13 PM 34.5375 -119.3172 129° Southeast 469 540 41,000  Level Los Angeles Center
Sat 04:24:15 PM 34.4550 -119.1947 129° Southeast 469 540 41,000  Level Los Angeles Center
Sat 04:25:17 PM 34.3558 -119.0486 129° Southeast 469 540 41,000  Level Los Angeles Center
Sat 04:26:19 PM 34.2731 -118.9278 130° Southeast 468 539 41,000  Level Los Angeles Center
Sat 04:27:21 PM 34.1900 -118.8064 130° Southeast 469 540 41,000  Level Los Angeles Center
Sat 04:28:23 PM 34.1075 -118.6864 130° Southeast 466 536 41,000 -192 Level Los Angeles Center
Sat 04:29:26 PM 34.0253 -118.5664 130° Southeast 465 535 40,600 -1,296 Descending Los Angeles Center
Sat 04:30:28 PM 33.9436 -118.4469 129° Southeast 460 529 38,300 -2,758 Descending Los Angeles Center
Sat 04:31:30 PM 33.8356 -118.3114 134° Southeast 458 527 34,900 -2,903 Descending Los Angeles Center
Sat 04:33:34 PM 33.6617 -118.0842 133° Southeast 448 516 29,300 -2,548 Descending Los Angeles Center
Sat 04:34:36 PM 33.5789 -117.9808 134° Southeast 430 495 27,000 -2,226 Descending Los Angeles Center
Sat 04:35:38 PM 33.5006 -117.8819 134° Southeast 409 471 24,700 -2,129 Descending Los Angeles Center
Sat 04:36:40 PM 33.4242 -117.7864 134° Southeast 397 457 22,600 -2,081 Descending Los Angeles Center
Sat 04:37:42 PM 33.3483 -117.6897 133° Southeast 399 459 20,400 -2,081 Descending Los Angeles Center
Sat 04:38:44 PM 33.2750 -117.5978 134° Southeast 385 443 18,300 -2,226 Descending Los Angeles Center
Sat 04:39:46 PM 33.1800 -117.5042 140° Southeast 369 425 15,800 -2,226 Descending Los Angeles Center
Sat 04:40:48 PM 33.0967 -117.4372 146° Southeast 364 419 13,700 -2,182 Descending Los Angeles Center
Sat 04:41:58 PM 33.0000 -117.3667 149° Southeast 329 379 11,000 -2,198 Descending Southern California TRACON
Sat 04:42:59 PM 32.9333 -117.3000 140° Southeast 317 365 8,900 -1,537 Descending Southern California TRACON
Sat 04:43:59 PM 32.8667 -117.2500 148° Southeast 281 323 7,900 -1,316 Descending Southern California TRACON
Sat 04:44:53 PM 32.8167 -117.2000 140° Southeast 274 315 6,400 -1,160 Descending Southern California TRACON
Sat 04:45:58 PM 32.7911 -117.1194 111° Southeast 256 295 5,600 -667 Descending Los Angeles Center
Sat 04:46:59 PM 32.7667 -117.0333 109° East 226 260 5,000 -738 Descending Southern California TRACON
Sat 04:48:00 PM 32.7167 -117.0167 164° South 189 217 4,100 -1,289 Descending Southern California TRACON
Sat 04:49:00 PM 32.7000 -117.0500 239° Southwest 177 204 2,400 -1,300 Descending Southern California TRACON
Sat 04:50:00 PM 32.7167 -117.1000 292° West 142 163 1,500 -850 Descending Southern California TRACON
Sat 04:51:00 PM 32.7167 -117.1500 270° West 132 152 700 -741 Descending Southern California TRACON
Sat 04:51:21 PM 32.7256 -117.1561 330° Northwest 135 155 500 -217 Descending Los Angeles Center
Sat 04:52:23 PM 32.7364 -117.1931 289° West 130 150 400 -97 Descending Los Angeles Center
Sat 04:54:00 PM 32.7336 -117.1897 134° Southeast  Level Estimated

Login

Don't have an account? Register now (free) for customized features, flight alerts, and more!